Time;durP1;ratioP1;P1;durP2;ratioP2;P2;SDS_P1;SDS_P2;PMS_P1;PMS_P2;Temp;Humidity;BMP_temperature;BMP_pressure;BME280_temperature;BME280_humidity;BME280_pressure;Samples;Min_cycle;Max_cycle;Signal;HPM_P1;HPM_P2
2021/05/14 00:02:22;;;;;;;7.50;4.55;;;;;;;14.71;51.34;98881.00;5032493;28;20049;-75
2021/05/14 00:04:49;;;;;;;7.65;4.20;;;;;;;14.66;51.61;98870.78;5032610;28;20476;-73
2021/05/14 00:07:17;;;;;;;7.85;4.88;;;;;;;14.63;51.63;98873.72;5031437;28;20100;-77
2021/05/14 00:09:44;;;;;;;6.40;5.13;;;;;;;14.59;51.80;98874.97;5031256;28;20091;-77
2021/05/14 00:12:11;;;;;;;8.00;5.35;;;;;;;14.55;52.20;98868.28;5031322;28;20057;-77
2021/05/14 00:14:38;;;;;;;8.52;5.57;;;;;;;14.50;52.23;98868.66;5031064;28;20049;-77
2021/05/14 00:17:05;;;;;;;7.88;5.00;;;;;;;14.47;52.21;98871.59;5031489;28;20085;-77
2021/05/14 00:19:32;;;;;;;7.35;5.47;;;;;;;14.44;52.30;98867.38;5031207;28;20458;-78
2021/05/14 00:21:59;;;;;;;6.80;5.53;;;;;;;14.40;52.64;98866.00;5031200;28;20050;-77
2021/05/14 00:24:25;;;;;;;7.07;5.38;;;;;;;14.35;52.67;98865.53;5031289;28;20140;-77
2021/05/14 00:26:52;;;;;;;7.03;6.20;;;;;;;14.32;53.09;98860.53;5031150;28;20092;-77
2021/05/14 00:29:19;;;;;;;9.07;6.28;;;;;;;14.29;53.07;98860.81;5032626;28;20108;-75
2021/05/14 00:31:46;;;;;;;8.15;6.70;;;;;;;14.24;53.33;98863.03;5031957;28;20474;-75
2021/05/14 00:34:13;;;;;;;10.10;6.43;;;;;;;14.19;53.56;98872.19;5032673;28;20053;-75
2021/05/14 00:36:40;;;;;;;7.70;5.88;;;;;;;14.16;53.62;98861.88;5031420;28;20152;-75
2021/05/14 00:39:07;;;;;;;8.00;6.32;;;;;;;14.13;53.68;98871.88;5031385;28;20156;-75
2021/05/14 00:41:34;;;;;;;9.15;6.63;;;;;;;14.10;53.78;98867.69;5031509;28;20132;-75
2021/05/14 00:44:27;;;;;;;10.40;6.15;;;;;;;14.04;54.65;98882.28;5031784;28;20481;-75
2021/05/14 00:46:54;;;;;;;6.43;5.63;;;;;;;14.10;53.68;98877.44;5031527;28;20092;-75
2021/05/14 00:49:22;;;;;;;10.13;6.15;;;;;;;14.07;54.03;98870.59;5031663;28;20140;-75
2021/05/14 00:51:49;;;;;;;12.27;6.07;;;;;;;14.05;54.18;98869.88;5031183;28;20151;-75
2021/05/14 00:54:18;;;;;;;9.27;5.82;;;;;;;14.03;54.03;98875.34;5030948;28;20103;-75
2021/05/14 00:56:45;;;;;;;10.20;7.20;;;;;;;14.01;54.23;98868.47;5032554;28;20095;-75
2021/05/14 00:59:11;;;;;;;9.73;6.40;;;;;;;13.98;54.03;98866.94;5031383;28;20410;-75
2021/05/14 01:01:38;;;;;;;11.68;6.68;;;;;;;13.96;54.21;98870.69;5031147;28;20140;-75
2021/05/14 01:04:05;;;;;;;8.43;7.30;;;;;;;13.92;54.36;98865.66;5031184;28;20057;-75
2021/05/14 01:06:32;;;;;;;12.23;8.20;;;;;;;13.89;54.32;98862.44;5033568;28;20145;-75
2021/05/14 01:09:01;;;;;;;10.45;8.43;;;;;;;13.86;54.55;98871.47;5034797;28;20140;-75
2021/05/14 01:11:28;;;;;;;11.77;8.20;;;;;;;13.81;54.49;98866.59;5034641;28;20164;-75
2021/05/14 01:13:57;;;;;;;13.05;8.98;;;;;;;13.78;54.72;98869.47;5034872;28;20137;-75
2021/05/14 01:16:24;;;;;;;16.02;9.75;;;;;;;13.74;54.90;98861.91;5034689;28;20085;-75
2021/05/14 01:18:52;;;;;;;11.02;9.70;;;;;;;13.70;55.06;98869.28;5035797;28;20060;-75
2021/05/14 01:21:21;;;;;;;10.82;9.48;;;;;;;13.68;55.40;98858.00;5034607;28;20551;-75
2021/05/14 01:23:48;;;;;;;16.20;10.20;;;;;;;13.66;55.05;98860.78;5034782;28;20045;-75
2021/05/14 01:26:18;;;;;;;12.20;9.27;;;;;;;13.63;55.79;98870.75;5034339;28;20140;-75
2021/05/14 01:28:47;;;;;;;12.88;9.68;;;;;;;13.61;55.26;98870.88;5035528;28;20059;-75
2021/05/14 01:31:15;;;;;;;12.73;9.13;;;;;;;13.59;55.83;98870.19;5034579;28;20473;-75
2021/05/14 01:33:43;;;;;;;12.63;9.57;;;;;;;13.58;55.47;98868.53;5035609;28;20057;-75
2021/05/14 01:36:10;;;;;;;10.65;8.73;;;;;;;13.56;55.44;98870.44;5035912;28;20085;-75
2021/05/14 01:38:37;;;;;;;14.10;10.00;;;;;;;13.54;55.22;98867.09;5034680;28;20488;-75
2021/05/14 01:41:05;;;;;;;11.43;9.60;;;;;;;13.50;55.75;98863.03;5034564;28;20060;-75
2021/05/14 01:43:33;;;;;;;11.30;9.73;;;;;;;13.47;55.66;98861.47;5033937;28;20183;-75
2021/05/14 01:46:05;;;;;;;12.23;8.95;;;;;;;13.43;56.44;98866.16;5034163;28;20054;-75
2021/05/14 01:48:32;;;;;;;11.68;9.63;;;;;;;13.42;55.71;98867.13;5014832;28;20053;-75
2021/05/14 01:51:19;;;;;;;13.88;9.52;;;;;;;13.36;56.59;98865.00;5014610;28;20133;-73
2021/05/14 01:53:46;;;;;;;14.52;9.98;;;;;;;13.38;55.69;98863.06;5013997;28;20137;-74
2021/05/14 01:56:13;;;;;;;12.25;9.98;;;;;;;13.36;55.82;98864.16;5013767;28;20081;-73
2021/05/14 01:58:40;;;;;;;14.52;10.25;;;;;;;13.35;56.11;98862.47;5013765;28;20054;-73
2021/05/14 02:01:08;;;;;;;16.35;10.70;;;;;;;13.34;56.15;98864.28;5021646;28;20045;-74
2021/05/14 02:03:35;;;;;;;11.95;9.95;;;;;;;13.34;55.96;98860.81;5033634;28;20482;-73
2021/05/14 02:06:02;;;;;;;14.32;10.90;;;;;;;13.34;56.07;98864.28;5033133;28;20061;-73
2021/05/14 02:08:29;;;;;;;13.05;10.63;;;;;;;13.33;56.17;98864.41;5033637;28;20406;-77
2021/05/14 02:10:55;;;;;;;14.25;11.38;;;;;;;13.31;56.40;98867.19;5033374;28;20054;-78
2021/05/14 02:13:22;;;;;;;13.88;11.60;;;;;;;13.29;56.37;98863.81;5033194;28;20092;-77
2021/05/14 02:15:49;;;;;;;15.27;11.35;;;;;;;13.27;56.31;98858.66;5030982;28;20561;-78
2021/05/14 02:18:16;;;;;;;13.88;11.65;;;;;;;13.24;56.39;98863.38;5032486;28;20099;-77
2021/05/14 02:20:43;;;;;;;15.70;12.00;;;;;;;13.22;56.54;98867.94;5033392;28;20410;-77
2021/05/14 02:23:10;;;;;;;14.50;11.63;;;;;;;13.20;56.79;98857.47;5034385;28;20046;-77
2021/05/14 02:25:37;;;;;;;11.63;10.27;;;;;;;13.18;56.76;98867.34;5033281;28;20544;-77
2021/05/14 02:28:06;;;;;;;19.65;12.05;;;;;;;13.18;56.94;98858.56;5033046;28;20136;-77
2021/05/14 02:30:33;;;;;;;14.43;11.68;;;;;;;13.18;57.06;98856.78;5032850;28;20148;-77
2021/05/14 02:33:00;;;;;;;13.40;11.60;;;;;;;13.18;57.18;98855.94;5032826;28;20132;-77
2021/05/14 02:35:27;;;;;;;15.00;12.02;;;;;;;13.19;57.26;98849.72;5033162;28;20475;-73
2021/05/14 02:37:54;;;;;;;14.75;12.00;;;;;;;13.20;57.33;98851.38;5033581;28;20153;-72
2021/05/14 02:40:21;;;;;;;13.43;11.45;;;;;;;13.21;57.40;98855.69;5033263;28;20132;-73
2021/05/14 02:42:49;;;;;;;16.77;12.15;;;;;;;13.22;57.61;98850.28;5032902;28;20089;-77
2021/05/14 02:45:16;;;;;;;15.13;11.82;;;;;;;13.24;57.39;98855.44;5032545;28;20055;-77
2021/05/14 02:47:43;;;;;;;17.92;11.95;;;;;;;13.25;57.57;98854.47;5032728;28;20132;-77
2021/05/14 02:50:11;;;;;;;13.93;11.13;;;;;;;13.26;57.77;98858.78;5032553;28;20093;-77
2021/05/14 02:52:37;;;;;;;16.48;11.85;;;;;;;13.27;57.59;98856.03;5032131;28;20144;-77
2021/05/14 02:55:05;;;;;;;17.45;10.45;;;;;;;13.28;57.54;98851.59;5031915;28;20165;-77
2021/05/14 02:57:33;;;;;;;26.25;10.38;;;;;;;13.28;57.56;98847.13;5032164;28;20124;-77
2021/05/14 02:59:59;;;;;;;38.63;11.15;;;;;;;13.28;57.39;98852.41;5033633;28;20508;-77
2021/05/14 03:02:27;;;;;;;38.10;10.82;;;;;;;13.27;57.42;98850.72;5033635;28;20045;-77
2021/05/14 03:04:53;;;;;;;24.50;11.07;;;;;;;13.26;57.57;98843.78;5032341;28;20053;-77
2021/05/14 03:07:21;;;;;;;46.85;10.82;;;;;;;13.24;57.63;98850.16;5032134;28;20049;-77
2021/05/14 03:09:47;;;;;;;19.25;11.15;;;;;;;13.22;57.77;98849.44;5032093;28;20437;-77
2021/05/14 03:12:15;;;;;;;26.42;11.38;;;;;;;13.21;57.68;98847.75;5032024;28;20140;-77
2021/05/14 03:14:42;;;;;;;24.73;11.98;;;;;;;13.19;57.73;98857.63;5032310;28;20135;-75
2021/05/14 03:17:09;;;;;;;17.00;11.85;;;;;;;13.17;58.24;98855.13;5032480;28;20064;-75
2021/05/14 03:19:36;;;;;;;34.42;12.18;;;;;;;13.15;57.99;98852.59;5032454;28;20465;-75
2021/05/14 03:22:05;;;;;;;49.97;12.93;;;;;;;13.14;58.19;98856.22;5032452;28;20053;-73
2021/05/14 03:24:32;;;;;;;32.72;12.32;;;;;;;13.14;58.13;98855.34;5032296;28;20049;-73
2021/05/14 03:26:59;;;;;;;30.25;12.32;;;;;;;13.12;58.11;98865.22;5032323;28;20089;-73
2021/05/14 03:29:26;;;;;;;38.10;12.25;;;;;;;13.10;58.21;98864.50;5031723;28;20462;-73
2021/05/14 03:31:53;;;;;;;24.20;12.75;;;;;;;13.09;58.36;98865.47;5032542;28;20053;-73
2021/05/14 03:34:20;;;;;;;38.15;12.35;;;;;;;13.09;58.39;98868.13;5031767;28;20060;-77
2021/05/14 03:36:47;;;;;;;18.33;13.07;;;;;;;13.08;58.46;98874.38;5032133;28;20075;-77
2021/05/14 03:39:15;;;;;;;24.85;14.25;;;;;;;13.07;58.70;98873.53;5032199;28;20057;-77
2021/05/14 03:44:11;;;;;;;14.23;12.00;;;;;;;13.09;58.80;98878.69;5032850;28;20056;-77
2021/05/14 03:46:38;;;;;;;47.30;15.18;;;;;;;13.08;58.83;98880.47;5031246;28;20053;-77
2021/05/14 03:49:06;;;;;;;20.73;13.27;;;;;;;13.09;58.93;98873.41;5031739;28;20060;-77
2021/05/14 03:51:37;;;;;;;31.40;15.00;;;;;;;13.07;59.81;98876.16;5031778;28;20067;-77
2021/05/14 03:54:05;;;;;;;28.55;14.73;;;;;;;13.09;58.94;98868.13;5032048;28;20100;-77
2021/05/14 03:56:32;;;;;;;23.85;15.68;;;;;;;13.09;59.05;98871.56;5031713;28;20152;-77
2021/05/14 03:59:00;;;;;;;26.27;17.15;;;;;;;13.10;59.01;98864.50;5031599;28;20167;-77
2021/05/14 04:01:30;;;;;;;25.95;17.52;;;;;;;13.11;59.88;98860.88;5031486;28;20549;-77
2021/05/14 04:03:58;;;;;;;21.40;17.02;;;;;;;13.13;59.15;98859.78;5031176;28;20081;-77
2021/05/14 04:06:25;;;;;;;24.63;18.33;;;;;;;13.14;59.03;98866.78;5031588;28;20057;-77
2021/05/14 04:08:52;;;;;;;26.80;18.85;;;;;;;13.16;59.06;98864.00;5031485;28;20409;-77
2021/05/14 04:16:31;;;;;;;25.27;18.33;;;;;;;13.19;58.94;98868.22;5033080;28;20509;-77
2021/05/14 04:18:58;;;;;;;28.08;18.92;;;;;;;13.19;58.99;98871.66;5031211;28;20077;-77
2021/05/14 04:21:27;;;;;;;34.53;20.98;;;;;;;13.19;59.22;98878.78;5032779;28;20136;-77
2021/05/14 04:23:53;;;;;;;36.30;20.55;;;;;;;13.20;59.06;98880.44;5031095;28;20527;-77
2021/05/14 04:26:20;;;;;;;32.63;18.10;;;;;;;13.18;59.06;98879.72;5031608;28;20554;-77
2021/05/14 04:28:47;;;;;;;31.63;18.17;;;;;;;13.18;59.19;98879.72;5031436;28;20056;-77
2021/05/14 04:31:14;;;;;;;43.45;19.40;;;;;;;13.16;59.15;98872.75;5031439;28;20111;-77
2021/05/14 04:33:40;;;;;;;29.10;18.98;;;;;;;13.16;59.17;98874.59;5014975;28;20093;-73
2021/05/14 04:36:07;;;;;;;34.20;21.98;;;;;;;13.16;59.26;98874.59;5032216;28;20459;-74
2021/05/14 04:38:34;;;;;;;47.90;20.05;;;;;;;13.15;59.06;98875.53;5031388;28;20136;-75
2021/05/14 04:41:01;;;;;;;41.33;19.20;;;;;;;13.14;59.13;98872.06;5032792;28;20053;-74
2021/05/14 04:43:27;;;;;;;32.83;19.85;;;;;;;13.14;59.14;98877.34;5035916;28;20133;-74
2021/05/14 04:45:54;;;;;;;27.70;18.10;;;;;;;13.12;59.21;98884.53;5035599;28;20059;-74
2021/05/14 04:48:22;;;;;;;24.38;16.15;;;;;;;13.12;59.61;98884.53;5035834;28;20398;-74
2021/05/14 04:50:49;;;;;;;45.67;16.33;;;;;;;13.13;59.34;98888.03;5035300;28;20093;-74
2021/05/14 04:53:27;;;;;;;30.88;16.17;;;;;;;13.11;60.15;98888.16;5035200;28;20049;-74
2021/05/14 04:55:54;;;;;;;39.78;16.75;;;;;;;13.12;59.44;98884.53;5034970;28;20140;-74
2021/05/14 04:58:21;;;;;;;26.30;16.17;;;;;;;13.12;59.25;98878.44;5036581;28;20085;-74
2021/05/14 05:00:51;;;;;;;23.58;15.05;;;;;;;13.09;60.02;98874.22;5035320;28;20103;-74
2021/05/14 05:03:18;;;;;;;28.10;16.02;;;;;;;13.11;59.64;98872.31;5035279;28;20049;-77
2021/05/14 05:05:46;;;;;;;23.48;15.60;;;;;;;13.11;59.55;98876.75;5035201;28;20063;-79
2021/05/14 05:08:12;;;;;;;57.85;15.55;;;;;;;13.13;59.61;98880.13;5034365;28;20137;-79
2021/05/14 05:10:39;;;;;;;28.45;14.30;;;;;;;13.13;59.40;98883.56;5034240;28;20136;-79
2021/05/14 05:13:06;;;;;;;20.05;13.48;;;;;;;13.13;59.55;98886.22;5034658;28;20055;-79
2021/05/14 05:15:32;;;;;;;20.23;12.88;;;;;;;13.14;59.57;98881.78;5034428;28;20144;-79
2021/05/14 05:17:59;;;;;;;21.42;13.48;;;;;;;13.14;59.48;98887.06;5034417;28;20069;-79
2021/05/14 05:20:26;;;;;;;31.60;13.25;;;;;;;13.14;59.60;98898.50;5034795;28;20053;-79
2021/05/14 05:22:54;;;;;;;30.48;11.65;;;;;;;13.13;59.42;98893.31;5034115;28;20199;-79
2021/05/14 05:25:21;;;;;;;17.30;12.30;;;;;;;13.13;59.30;98896.78;5034405;28;20413;-79
2021/05/14 05:27:48;;;;;;;21.38;13.85;;;;;;;13.12;59.45;98905.69;5034171;28;20439;-79
2021/05/14 05:30:16;;;;;;;15.15;11.48;;;;;;;13.09;59.48;98900.66;5034234;28;20053;-79
2021/05/14 05:32:44;;;;;;;16.23;12.85;;;;;;;13.08;59.64;98898.97;5034048;28;20473;-79
2021/05/14 05:35:11;;;;;;;18.05;13.00;;;;;;;13.08;59.73;98896.31;5034021;28;20141;-79
2021/05/14 05:37:37;;;;;;;16.98;12.95;;;;;;;13.08;59.81;98891.03;5034436;28;20132;-79
2021/05/14 05:40:05;;;;;;;16.65;12.32;;;;;;;13.09;60.01;98895.34;5033858;28;20144;-79
2021/05/14 05:42:32;;;;;;;17.17;12.55;;;;;;;13.12;60.14;98903.03;5033859;28;20091;-79
2021/05/14 05:44:58;;;;;;;18.52;12.85;;;;;;;13.13;59.95;98896.78;5033593;28;20128;-79
2021/05/14 05:47:25;;;;;;;17.60;13.48;;;;;;;13.16;59.93;98904.47;5033758;28;20054;-79
2021/05/14 05:49:58;;;;;;;19.25;14.20;;;;;;;13.16;60.54;98908.94;5033795;28;20063;-74
2021/05/14 05:52:25;;;;;;;18.55;13.68;;;;;;;13.21;59.95;98903.25;5033059;28;20068;-75
2021/05/14 05:55:04;;;;;;;18.25;12.95;;;;;;;13.20;60.53;98914.81;5034308;28;20068;-75
2021/05/14 05:57:30;;;;;;;22.02;14.88;;;;;;;13.26;59.87;98915.13;5034518;28;20144;-74
2021/05/14 05:59:58;;;;;;;19.98;14.73;;;;;;;13.28;60.14;98913.19;5034299;28;20071;-75
2021/05/14 06:02:25;;;;;;;19.20;13.27;;;;;;;13.31;59.86;98916.56;5034058;28;20542;-75
2021/05/14 06:04:52;;;;;;;18.75;13.20;;;;;;;13.32;60.05;98908.50;5034272;28;20048;-74
2021/05/14 06:07:21;;;;;;;21.10;15.55;;;;;;;13.35;60.33;98915.34;5034299;28;20450;-74
2021/05/14 06:09:48;;;;;;;22.70;15.63;;;;;;;13.38;60.10;98909.81;5033954;28;20060;-74
2021/05/14 06:12:17;;;;;;;22.08;15.48;;;;;;;13.40;60.16;98903.44;5033890;28;20402;-74
2021/05/14 06:14:44;;;;;;;22.58;16.52;;;;;;;13.42;60.03;98904.13;5034086;28;20059;-74
2021/05/14 06:17:12;;;;;;;20.33;15.73;;;;;;;13.45;60.43;98910.16;5033751;28;20057;-77
2021/05/14 06:22:35;;;;;;;20.40;14.68;;;;;;;13.51;60.15;98915.78;5021736;28;20095;-77
2021/05/14 06:25:04;;;;;;;22.70;15.50;;;;;;;13.53;60.11;98913.84;5032758;28;20382;-75
2021/05/14 06:27:31;;;;;;;22.80;16.27;;;;;;;13.55;59.97;98916.38;5033220;28;20057;-75
2021/05/14 06:29:58;;;;;;;22.77;16.98;;;;;;;13.57;60.19;98917.06;5033367;28;20405;-75
2021/05/14 06:32:25;;;;;;;23.65;16.98;;;;;;;13.61;60.09;98915.03;5032938;28;20136;-74
2021/05/14 06:34:53;;;;;;;24.40;16.67;;;;;;;13.62;60.16;98921.97;5033975;28;20144;-75
2021/05/14 06:37:20;;;;;;;19.92;15.38;;;;;;;13.64;59.80;98934.09;5032877;28;20140;-75
2021/05/14 06:39:48;;;;;;;25.73;16.10;;;;;;;13.65;59.95;98929.66;5016666;28;20061;-75
2021/05/14 06:42:15;;;;;;;26.50;16.65;;;;;;;13.65;59.92;98937.59;5032388;28;20045;-75
2021/05/14 06:44:42;;;;;;;24.98;16.80;;;;;;;13.62;59.90;98933.41;5032513;28;20481;-75
2021/05/14 06:47:09;;;;;;;21.90;15.38;;;;;;;13.63;59.76;98935.09;5032687;28;20052;-75
2021/05/14 06:49:43;;;;;;;22.92;16.33;;;;;;;13.61;60.62;98944.09;5032623;28;20092;-77
2021/05/14 06:52:09;;;;;;;26.20;17.58;;;;;;;13.63;60.20;98950.09;5033647;28;20054;-77
2021/05/14 06:54:36;;;;;;;25.73;17.55;;;;;;;13.63;60.19;98947.44;5033740;28;20455;-78
2021/05/14 06:57:03;;;;;;;22.85;16.48;;;;;;;13.63;60.00;98950.94;5033054;28;20104;-78
2021/05/14 06:59:30;;;;;;;20.52;14.45;;;;;;;13.63;60.01;98950.09;5019406;28;20061;-75
2021/05/14 07:01:57;;;;;;;22.25;15.27;;;;;;;13.63;60.22;98953.59;5033146;28;20100;-75
2021/05/14 07:04:26;;;;;;;23.35;15.80;;;;;;;13.62;60.48;98959.00;5032575;28;20482;-75
2021/05/14 07:06:53;;;;;;;23.55;15.52;;;;;;;13.63;60.11;98961.53;5033946;28;20144;-75
2021/05/14 07:09:20;;;;;;;23.45;16.30;;;;;;;13.61;60.04;98958.16;5033011;28;20597;-75
2021/05/14 07:11:48;;;;;;;20.98;15.40;;;;;;;13.61;60.40;98959.97;5032679;28;20075;-75
2021/05/14 07:14:15;;;;;;;23.38;15.88;;;;;;;13.61;60.42;98960.78;5032446;28;20053;-75
2021/05/14 07:16:49;;;;;;;25.35;16.08;;;;;;;13.62;60.73;98967.78;5032729;28;20136;-75
2021/05/14 07:19:16;;;;;;;25.02;15.45;;;;;;;13.64;60.21;98965.03;5032899;28;20141;-75
2021/05/14 07:21:43;;;;;;;19.55;14.75;;;;;;;13.66;60.22;98965.72;5032542;28;20104;-75
2021/05/14 07:24:10;;;;;;;19.90;15.13;;;;;;;13.66;60.20;98966.56;5032643;28;20436;-75
2021/05/14 07:26:39;;;;;;;24.65;15.88;;;;;;;13.67;60.63;98970.88;5032517;28;20060;-75
2021/05/14 07:29:07;;;;;;;20.67;15.30;;;;;;;13.68;60.21;98966.41;5032514;28;20061;-75
2021/05/14 07:31:39;;;;;;;19.92;14.90;;;;;;;13.68;60.74;98969.06;5032631;28;20450;-75
2021/05/14 07:34:07;;;;;;;;;;;;;;;13.72;60.21;98974.97;5032928;28;20172;-75
2021/05/14 07:36:36;;;;;;;19.80;14.27;;;;;;;13.78;60.26;98967.34;5032387;28;20020;-75
2021/05/14 07:39:03;;;;;;;19.85;14.90;;;;;;;13.81;60.13;98977.69;5032395;28;20056;-75
2021/05/14 07:41:32;;;;;;;22.92;16.08;;;;;;;13.82;60.56;98981.16;5032431;28;20095;-75
2021/05/14 07:43:59;;;;;;;20.52;14.48;;;;;;;13.85;60.53;98977.41;5032721;28;20184;-75
2021/05/14 07:46:27;;;;;;;21.35;15.93;;;;;;;13.87;60.84;98980.78;5032738;28;20099;-75
2021/05/14 07:48:55;;;;;;;23.90;16.33;;;;;;;13.90;60.74;98984.00;5032268;28;20522;-75
2021/05/14 07:51:22;;;;;;;22.85;16.83;;;;;;;13.93;60.88;98983.75;5032481;28;20049;-75
2021/05/14 07:53:49;;;;;;;21.90;15.48;;;;;;;13.97;60.98;98981.66;5032169;28;20207;-75
2021/05/14 07:56:17;;;;;;;25.02;17.15;;;;;;;14.03;61.16;98982.97;5032006;28;20051;-75
2021/05/14 07:58:43;;;;;;;22.35;16.27;;;;;;;14.10;61.41;98983.28;5031866;28;20140;-75
2021/05/14 08:01:11;;;;;;;22.80;16.30;;;;;;;14.15;61.04;98987.22;5032103;28;20057;-75
2021/05/14 08:03:38;;;;;;;25.23;18.25;;;;;;;14.24;60.75;98987.41;5032155;28;20533;-75
2021/05/14 08:06:05;;;;;;;23.63;17.65;;;;;;;14.30;60.96;98989.53;5031271;28;20055;-75
2021/05/14 08:08:36;;;;;;;25.33;17.88;;;;;;;14.35;60.81;98979.38;5032134;28;20049;-75
2021/05/14 08:11:03;;;;;;;24.92;17.60;;;;;;;14.40;60.65;98985.16;5031860;28;20495;-75
2021/05/14 08:13:30;;;;;;;24.42;17.60;;;;;;;14.45;60.79;98987.38;5032139;28;20136;-75
2021/05/14 08:15:56;;;;;;;23.83;17.35;;;;;;;14.50;60.78;98994.94;5034733;28;20129;-75
2021/05/14 08:18:27;;;;;;;23.63;17.05;;;;;;;14.54;60.69;98991.06;5036282;28;20528;-75
2021/05/14 08:20:55;;;;;;;27.90;17.52;;;;;;;14.58;60.67;98993.31;5036072;28;20470;-75
2021/05/14 08:23:22;;;;;;;21.23;16.35;;;;;;;14.62;60.29;98988.59;5035578;28;20421;-75
2021/05/14 08:25:50;;;;;;;21.60;16.30;;;;;;;14.63;60.41;98990.28;5035668;28;20147;-75
2021/05/14 08:28:18;;;;;;;23.10;16.67;;;;;;;14.66;60.13;98987.34;5035812;28;20191;-77
2021/05/14 08:30:46;;;;;;;19.88;15.77;;;;;;;14.68;59.98;98989.84;5035688;28;20136;-78
2021/05/14 08:33:14;;;;;;;22.20;14.98;;;;;;;14.69;60.10;98989.72;5035712;28;20167;-78
2021/05/14 08:35:41;;;;;;;20.20;14.85;;;;;;;14.69;59.97;98989.72;5035309;28;20125;-78
2021/05/14 08:38:09;;;;;;;20.00;15.05;;;;;;;14.68;60.07;98992.50;5036447;28;20053;-78
2021/05/14 08:40:38;;;;;;;19.45;14.10;;;;;;;14.68;60.14;98996.00;5035326;28;20137;-78
2021/05/14 08:43:08;;;;;;;20.17;14.10;;;;;;;14.68;59.98;98996.00;5035583;28;20053;-78
2021/05/14 08:45:35;;;;;;;18.45;13.75;;;;;;;14.68;60.16;98993.34;5035890;28;20049;-78
2021/05/14 08:48:05;;;;;;;19.42;14.52;;;;;;;14.69;60.32;99005.63;5035454;28;20057;-78
2021/05/14 08:50:32;;;;;;;17.70;13.13;;;;;;;14.70;60.23;98999.34;5035392;28;20094;-78
2021/05/14 08:53:09;;;;;;;17.80;13.45;;;;;;;14.68;60.74;99008.41;5038193;28;20140;-78
2021/05/14 08:55:36;;;;;;;17.30;12.82;;;;;;;14.72;60.59;99000.06;5036160;28;20401;-77
2021/05/14 08:58:03;;;;;;;17.80;13.13;;;;;;;14.75;60.40;98998.94;5035956;28;20053;-78
2021/05/14 09:00:30;;;;;;;15.93;11.73;;;;;;;14.78;60.39;98998.72;5035446;28;20512;-75
2021/05/14 09:02:57;;;;;;;15.27;12.35;;;;;;;14.81;60.01;99006.38;5035065;28;20470;-75
2021/05/14 09:05:29;;;;;;;15.15;12.43;;;;;;;14.81;60.29;99006.38;5034952;28;20486;-75
2021/05/14 09:07:58;;;;;;;17.05;12.77;;;;;;;14.83;59.94;99015.06;5034360;28;20140;-75
2021/05/14 09:10:27;;;;;;;15.68;11.85;;;;;;;14.81;59.94;99014.34;5034410;28;20084;-75
2021/05/14 09:12:54;;;;;;;15.45;11.73;;;;;;;14.79;59.80;99010.16;5034283;28;20107;-75
2021/05/14 09:15:28;;;;;;;16.60;12.18;;;;;;;14.76;60.08;99024.50;5034582;28;20056;-75
2021/05/14 09:18:15;;;;;;;17.15;12.63;;;;;;;14.70;60.38;99012.59;5034459;28;20100;-75
2021/05/14 09:20:55;;;;;;;17.13;12.20;;;;;;;14.71;60.56;99024.88;5034565;28;20560;-75
2021/05/14 09:23:34;;;;;;;17.23;12.77;;;;;;;14.72;60.11;99021.25;5034784;28;20073;-75
2021/05/14 09:26:09;;;;;;;16.85;12.40;;;;;;;14.70;60.39;99023.19;5034041;28;20053;-77
2021/05/14 09:28:38;;;;;;;16.67;11.82;;;;;;;14.70;60.22;99011.75;5034890;28;20459;-78
2021/05/14 09:31:05;;;;;;;18.08;12.55;;;;;;;14.68;60.06;99019.84;5036483;28;20562;-77
2021/05/14 09:34:09;;;;;;;18.48;12.43;;;;;;;14.63;60.44;99022.06;5036436;28;20061;-77
2021/05/14 09:36:36;;;;;;;;;;;;;;;14.65;59.92;99024.56;5037560;28;20115;-78
2021/05/14 09:39:05;;;;;;;18.83;11.18;;;;;;;14.68;59.89;99027.78;5034914;28;19921;-78
2021/05/14 09:41:43;;;;;;;16.95;11.43;;;;;;;14.62;60.38;99015.09;5036074;28;20571;-78
2021/05/14 09:44:10;;;;;;;16.98;12.20;;;;;;;14.62;60.18;99024.81;5036088;28;20136;-78
2021/05/14 09:46:41;;;;;;;18.55;12.15;;;;;;;14.57;60.74;99023.41;5038032;28;20091;-78
2021/05/14 09:49:13;;;;;;;17.52;11.30;;;;;;;14.58;60.96;99018.97;5038730;28;20057;-78
2021/05/14 09:51:57;;;;;;;17.70;11.65;;;;;;;14.57;61.30;99019.91;5037825;28;20562;-78
2021/05/14 09:54:37;;;;;;;12.52;9.68;;;;;;;14.61;60.82;99015.22;5037042;28;20103;-75
2021/05/14 10:00:03;;;;;;;13.15;9.80;;;;;;;14.67;60.87;99017.31;5034774;28;20045;-80
2021/05/14 10:02:36;;;;;;;14.95;10.30;;;;;;;14.70;60.93;99022.34;5033745;28;20053;-80
2021/05/14 10:05:05;;;;;;;11.90;9.20;;;;;;;14.71;60.79;99024.88;5033472;28;20094;-79
2021/05/14 10:07:33;;;;;;;11.95;8.82;;;;;;;14.76;60.84;99024.50;5033526;28;20049;-80
2021/05/14 10:10:03;;;;;;;13.95;8.30;;;;;;;14.79;61.30;99023.38;5033498;28;20486;-75
2021/05/14 10:12:31;;;;;;;9.73;7.20;;;;;;;14.84;61.34;99015.91;5033874;28;20140;-75
2021/05/14 10:15:01;;;;;;;7.68;6.38;;;;;;;14.90;61.15;99010.06;5034119;28;20124;-75
2021/05/14 10:17:29;;;;;;;6.45;5.50;;;;;;;14.97;61.23;99016.50;5033908;28;20053;-75
2021/05/14 10:19:58;;;;;;;6.53;5.63;;;;;;;15.05;61.40;99014.97;5032001;28;20140;-75
2021/05/14 10:22:30;;;;;;;5.97;4.90;;;;;;;15.13;61.54;99017.78;5033594;28;20057;-75
2021/05/14 10:25:00;;;;;;;5.93;5.00;;;;;;;15.23;61.61;99017.81;5032666;28;20106;-75
2021/05/14 10:27:38;;;;;;;5.47;4.78;;;;;;;15.30;61.58;99012.81;5033238;28;20050;-75
2021/05/14 10:30:05;;;;;;;5.03;4.53;;;;;;;15.40;60.95;99013.66;5033351;28;20136;-75
2021/05/14 10:32:46;;;;;;;5.43;4.63;;;;;;;15.44;60.96;99014.25;5033771;28;20061;-75
2021/05/14 10:35:23;;;;;;;6.32;5.00;;;;;;;15.49;60.81;99018.16;5033118;28;20119;-75
2021/05/14 10:38:05;;;;;;;5.47;4.95;;;;;;;15.53;61.25;99012.56;5034503;28;20057;-75
2021/05/14 10:40:37;;;;;;;5.07;4.45;;;;;;;15.61;61.03;99016.22;5032916;28;20053;-75
2021/05/14 10:43:20;;;;;;;4.80;4.35;;;;;;;15.62;61.18;99017.88;5033106;28;20057;-75
2021/05/14 10:45:48;;;;;;;;;;;;;;;15.71;60.56;99013.56;5033187;28;20058;-74
2021/05/14 10:48:20;;;;;;;4.78;4.32;;;;;;;15.80;60.66;99009.22;5033197;28;20372;-75
2021/05/14 10:50:56;;;;;;;5.20;4.53;;;;;;;15.81;60.45;99016.19;5032833;28;20089;-75
2021/05/14 10:53:37;;;;;;;5.18;4.68;;;;;;;15.85;60.40;99012.28;5032618;28;20401;-75
2021/05/14 10:56:10;;;;;;;5.13;4.63;;;;;;;15.86;60.29;99013.16;5032426;28;20549;-75
2021/05/14 10:58:47;;;;;;;;;;;;;;;15.88;60.06;99012.03;5032627;28;20494;-75
2021/05/14 11:01:35;;;;;;;4.78;4.15;;;;;;;15.89;59.88;99010.22;5032564;28;20416;-75
2021/05/14 11:04:05;;;;;;;4.82;4.35;;;;;;;15.91;59.88;99010.91;5032305;28;20061;-75
2021/05/14 11:06:53;;;;;;;5.07;4.53;;;;;;;15.85;60.29;99016.78;5032252;28;20448;-75
2021/05/14 11:09:24;;;;;;;4.90;4.45;;;;;;;15.87;60.07;99014.81;5031955;28;20103;-75
2021/05/14 11:12:03;;;;;;;4.95;4.45;;;;;;;15.80;60.12;99014.53;5034813;28;20068;-78
2021/05/14 11:14:45;;;;;;;6.15;4.70;;;;;;;15.77;60.40;99018.31;5033173;28;20057;-78
2021/05/14 11:17:22;;;;;;;4.95;4.32;;;;;;;15.78;60.06;99013.84;5034172;28;20409;-78
2021/05/14 11:19:51;;;;;;;5.07;4.57;;;;;;;15.74;60.28;99021.22;5032292;28;20053;-80
2021/05/14 11:22:36;;;;;;;4.57;3.92;;;;;;;15.68;60.58;99024.47;5032205;28;20088;-75
2021/05/14 11:25:14;;;;;;;4.32;3.92;;;;;;;15.69;60.47;99023.47;5031650;28;20085;-75
2021/05/14 11:27:53;;;;;;;3.97;3.67;;;;;;;15.70;60.14;99019.84;5031775;28;20077;-75
2021/05/14 11:30:21;;;;;;;4.38;3.95;;;;;;;15.68;60.18;99024.47;5032892;28;20053;-75
2021/05/14 11:32:48;;;;;;;4.50;4.10;;;;;;;15.67;60.19;99019.28;5031933;28;20140;-75
2021/05/14 11:35:20;;;;;;;4.43;4.03;;;;;;;15.63;60.64;99016.06;5031695;28;20140;-76
2021/05/14 11:38:06;;;;;;;4.65;4.25;;;;;;;15.61;61.44;99028.63;5031581;28;20083;-75
2021/05/14 11:40:39;;;;;;;4.40;4.00;;;;;;;15.69;61.26;99027.94;5031631;28;20089;-75
2021/05/14 11:43:11;;;;;;;4.88;4.25;;;;;;;15.79;61.57;99035.91;5031769;28;20057;-75
2021/05/14 11:45:41;;;;;;;4.50;4.13;;;;;;;15.87;61.54;99026.28;5031469;28;20081;-75